sensor_id;sensor_type;location;lat;lon;timestamp;temperature;humidity
9209;DHT22;4639;48.862;9.188;2022-09-13T00:00:06;18.00;99.90
9209;DHT22;4639;48.862;9.188;2022-09-13T00:02:31;18.00;99.90
9209;DHT22;4639;48.862;9.188;2022-09-13T00:04:57;18.00;99.90
9209;DHT22;4639;48.862;9.188;2022-09-13T00:07:23;18.00;99.90
9209;DHT22;4639;48.862;9.188;2022-09-13T00:09:48;18.00;99.90
9209;DHT22;4639;48.862;9.188;2022-09-13T00:12:14;17.90;99.90
9209;DHT22;4639;48.862;9.188;2022-09-13T00:14:39;17.90;99.90
9209;DHT22;4639;48.862;9.188;2022-09-13T00:17:05;17.90;99.90
9209;DHT22;4639;48.862;9.188;2022-09-13T00:19:31;17.80;99.90
9209;DHT22;4639;48.862;9.188;2022-09-13T00:21:56;17.80;99.90
9209;DHT22;4639;48.862;9.188;2022-09-13T00:24:22;17.80;99.90
9209;DHT22;4639;48.862;9.188;2022-09-13T00:26:47;17.80;99.90
9209;DHT22;4639;48.862;9.188;2022-09-13T00:29:13;17.70;99.90
9209;DHT22;4639;48.862;9.188;2022-09-13T00:31:38;17.60;99.90
9209;DHT22;4639;48.862;9.188;2022-09-13T00:34:04;17.70;99.90
9209;DHT22;4639;48.862;9.188;2022-09-13T00:36:29;17.60;99.90
9209;DHT22;4639;48.862;9.188;2022-09-13T00:38:55;17.60;99.90
9209;DHT22;4639;48.862;9.188;2022-09-13T00:41:21;17.60;99.90
9209;DHT22;4639;48.862;9.188;2022-09-13T00:43:50;17.60;99.90
9209;DHT22;4639;48.862;9.188;2022-09-13T00:46:26;17.60;99.90
9209;DHT22;4639;48.862;9.188;2022-09-13T00:48:56;17.50;99.90
9209;DHT22;4639;48.862;9.188;2022-09-13T00:51:23;17.50;99.90
9209;DHT22;4639;48.862;9.188;2022-09-13T00:53:51;17.50;99.90
9209;DHT22;4639;48.862;9.188;2022-09-13T00:56:27;17.50;99.90
9209;DHT22;4639;48.862;9.188;2022-09-13T00:59:01;17.50;99.90
9209;DHT22;4639;48.862;9.188;2022-09-13T01:01:40;17.40;99.90
9209;DHT22;4639;48.862;9.188;2022-09-13T01:04:08;17.30;99.90
9209;DHT22;4639;48.862;9.188;2022-09-13T01:06:35;17.30;99.90
9209;DHT22;4639;48.862;9.188;2022-09-13T01:09:04;17.30;99.90
9209;DHT22;4639;48.862;9.188;2022-09-13T01:12:02;17.40;99.90
9209;DHT22;4639;48.862;9.188;2022-09-13T01:14:33;17.20;99.90
9209;DHT22;4639;48.862;9.188;2022-09-13T01:16:59;17.20;99.90
9209;DHT22;4639;48.862;9.188;2022-09-13T01:19:25;17.10;99.90
9209;DHT22;4639;48.862;9.188;2022-09-13T01:22:18;17.10;99.90
9209;DHT22;4639;48.862;9.188;2022-09-13T01:28:05;17.10;99.90
9209;DHT22;4639;48.862;9.188;2022-09-13T01:30:42;17.10;99.90
9209;DHT22;4639;48.862;9.188;2022-09-13T01:33:43;17.10;99.90
9209;DHT22;4639;48.862;9.188;2022-09-13T01:57:51;16.90;99.90
9209;DHT22;4639;48.862;9.188;2022-09-13T02:00:18;16.80;99.90
9209;DHT22;4639;48.862;9.188;2022-09-13T02:02:51;16.90;99.90
9209;DHT22;4639;48.862;9.188;2022-09-13T02:05:36;16.80;99.90
9209;DHT22;4639;48.862;9.188;2022-09-13T02:08:08;16.80;99.90
9209;DHT22;4639;48.862;9.188;2022-09-13T02:10:38;16.80;99.90
9209;DHT22;4639;48.862;9.188;2022-09-13T02:13:10;16.80;99.90
9209;DHT22;4639;48.862;9.188;2022-09-13T02:15:43;16.80;99.90
9209;DHT22;4639;48.862;9.188;2022-09-13T02:18:26;16.80;99.90
9209;DHT22;4639;48.862;9.188;2022-09-13T02:21:00;16.80;99.90
9209;DHT22;4639;48.862;9.188;2022-09-13T02:23:36;16.90;99.90
9209;DHT22;4639;48.862;9.188;2022-09-13T02:26:04;16.80;99.90
9209;DHT22;4639;48.862;9.188;2022-09-13T02:28:36;16.70;99.90
9209;DHT22;4639;48.862;9.188;2022-09-13T02:31:07;16.70;99.90
9209;DHT22;4639;48.862;9.188;2022-09-13T02:33:46;16.70;99.90
9209;DHT22;4639;48.862;9.188;2022-09-13T02:36:25;16.60;99.90
9209;DHT22;4639;48.862;9.188;2022-09-13T02:39:00;16.60;99.90
9209;DHT22;4639;48.862;9.188;2022-09-13T02:44:21;16.40;99.90
9209;DHT22;4639;48.862;9.188;2022-09-13T02:47:07;16.40;99.90
9209;DHT22;4639;48.862;9.188;2022-09-13T02:52:19;16.40;99.90
9209;DHT22;4639;48.862;9.188;2022-09-13T02:54:56;16.30;99.90
9209;DHT22;4639;48.862;9.188;2022-09-13T02:59:57;16.30;99.90
9209;DHT22;4639;48.862;9.188;2022-09-13T03:02:26;16.20;99.90
9209;DHT22;4639;48.862;9.188;2022-09-13T03:04:53;16.20;99.90
9209;DHT22;4639;48.862;9.188;2022-09-13T03:07:19;16.20;99.90
9209;DHT22;4639;48.862;9.188;2022-09-13T03:09:48;16.10;99.90
9209;DHT22;4639;48.862;9.188;2022-09-13T03:15:19;16.20;99.90
9209;DHT22;4639;48.862;9.188;2022-09-13T03:17:58;16.10;99.90
9209;DHT22;4639;48.862;9.188;2022-09-13T03:20:48;16.10;99.90
9209;DHT22;4639;48.862;9.188;2022-09-13T03:26:17;16.10;99.90
9209;DHT22;4639;48.862;9.188;2022-09-13T03:34:29;15.90;99.90
9209;DHT22;4639;48.862;9.188;2022-09-13T03:37:23;15.90;99.90
9209;DHT22;4639;48.862;9.188;2022-09-13T03:40:07;15.80;99.90
9209;DHT22;4639;48.862;9.188;2022-09-13T03:42:49;15.70;99.90
9209;DHT22;4639;48.862;9.188;2022-09-13T03:45:19;15.60;99.90
9209;DHT22;4639;48.862;9.188;2022-09-13T03:47:47;15.50;99.90
9209;DHT22;4639;48.862;9.188;2022-09-13T03:50:17;15.50;99.90
9209;DHT22;4639;48.862;9.188;2022-09-13T03:52:45;15.50;99.90
9209;DHT22;4639;48.862;9.188;2022-09-13T03:55:12;15.50;99.90
9209;DHT22;4639;48.862;9.188;2022-09-13T03:57:37;15.60;99.90
9209;DHT22;4639;48.862;9.188;2022-09-13T04:00:04;15.60;99.90
9209;DHT22;4639;48.862;9.188;2022-09-13T04:02:29;15.50;99.90
9209;DHT22;4639;48.862;9.188;2022-09-13T04:04:55;15.40;99.90
9209;DHT22;4639;48.862;9.188;2022-09-13T04:07:23;15.30;99.90
9209;DHT22;4639;48.862;9.188;2022-09-13T04:09:49;15.30;99.90
9209;DHT22;4639;48.862;9.188;2022-09-13T04:12:16;15.30;99.90
9209;DHT22;4639;48.862;9.188;2022-09-13T04:14:42;15.30;99.90
9209;DHT22;4639;48.862;9.188;2022-09-13T04:17:08;15.20;99.90
9209;DHT22;4639;48.862;9.188;2022-09-13T04:19:34;15.20;99.90
9209;DHT22;4639;48.862;9.188;2022-09-13T04:22:00;15.10;99.90
9209;DHT22;4639;48.862;9.188;2022-09-13T04:24:27;15.10;99.90
9209;DHT22;4639;48.862;9.188;2022-09-13T04:26:54;15.10;99.90
9209;DHT22;4639;48.862;9.188;2022-09-13T04:29:20;15.20;99.90
9209;DHT22;4639;48.862;9.188;2022-09-13T04:31:47;15.20;99.90
9209;DHT22;4639;48.862;9.188;2022-09-13T04:34:13;15.10;99.90
9209;DHT22;4639;48.862;9.188;2022-09-13T04:36:39;15.10;99.90
9209;DHT22;4639;48.862;9.188;2022-09-13T04:39:05;15.20;99.90
9209;DHT22;4639;48.862;9.188;2022-09-13T04:41:31;15.10;99.90
9209;DHT22;4639;48.862;9.188;2022-09-13T04:44:02;15.20;99.90
9209;DHT22;4639;48.862;9.188;2022-09-13T04:46:28;15.30;99.90
9209;DHT22;4639;48.862;9.188;2022-09-13T04:48:54;15.30;99.90
9209;DHT22;4639;48.862;9.188;2022-09-13T04:51:20;15.40;99.90
9209;DHT22;4639;48.862;9.188;2022-09-13T04:53:51;15.40;99.90
9209;DHT22;4639;48.862;9.188;2022-09-13T04:56:18;15.50;99.90
9209;DHT22;4639;48.862;9.188;2022-09-13T04:58:44;15.60;99.90
9209;DHT22;4639;48.862;9.188;2022-09-13T05:01:10;15.60;99.90
9209;DHT22;4639;48.862;9.188;2022-09-13T05:03:36;15.60;99.90
9209;DHT22;4639;48.862;9.188;2022-09-13T05:06:07;15.60;99.90
9209;DHT22;4639;48.862;9.188;2022-09-13T05:08:34;15.60;99.90
9209;DHT22;4639;48.862;9.188;2022-09-13T05:11:00;15.60;99.90
9209;DHT22;4639;48.862;9.188;2022-09-13T05:13:26;15.70;99.90
9209;DHT22;4639;48.862;9.188;2022-09-13T05:15:57;15.70;99.90
9209;DHT22;4639;48.862;9.188;2022-09-13T05:18:25;15.80;99.90
9209;DHT22;4639;48.862;9.188;2022-09-13T05:20:53;15.90;99.90
9209;DHT22;4639;48.862;9.188;2022-09-13T05:23:19;15.80;99.90
9209;DHT22;4639;48.862;9.188;2022-09-13T05:25:45;15.80;99.90
9209;DHT22;4639;48.862;9.188;2022-09-13T05:28:11;15.80;99.90
9209;DHT22;4639;48.862;9.188;2022-09-13T05:30:37;15.80;99.90
9209;DHT22;4639;48.862;9.188;2022-09-13T05:33:02;15.80;99.90
9209;DHT22;4639;48.862;9.188;2022-09-13T05:35:28;15.80;99.90
9209;DHT22;4639;48.862;9.188;2022-09-13T05:37:54;15.90;99.90
9209;DHT22;4639;48.862;9.188;2022-09-13T05:40:19;15.80;99.90
9209;DHT22;4639;48.862;9.188;2022-09-13T05:42:45;15.80;99.90
9209;DHT22;4639;48.862;9.188;2022-09-13T05:45:10;15.80;99.90
9209;DHT22;4639;48.862;9.188;2022-09-13T05:47:36;15.70;99.90
9209;DHT22;4639;48.862;9.188;2022-09-13T05:50:02;15.80;99.90
9209;DHT22;4639;48.862;9.188;2022-09-13T05:52:27;15.80;99.90
9209;DHT22;4639;48.862;9.188;2022-09-13T05:54:53;15.80;99.90
9209;DHT22;4639;48.862;9.188;2022-09-13T05:57:18;15.80;99.90
9209;DHT22;4639;48.862;9.188;2022-09-13T05:59:44;15.80;99.90
9209;DHT22;4639;48.862;9.188;2022-09-13T06:02:09;15.90;99.90
9209;DHT22;4639;48.862;9.188;2022-09-13T06:04:35;15.90;99.90
9209;DHT22;4639;48.862;9.188;2022-09-13T06:07:01;15.90;99.90
9209;DHT22;4639;48.862;9.188;2022-09-13T06:09:26;15.90;99.90
9209;DHT22;4639;48.862;9.188;2022-09-13T06:11:52;16.00;99.90
9209;DHT22;4639;48.862;9.188;2022-09-13T06:14:17;16.00;99.90
9209;DHT22;4639;48.862;9.188;2022-09-13T06:16:43;16.00;99.90
9209;DHT22;4639;48.862;9.188;2022-09-13T06:19:08;16.10;99.90
9209;DHT22;4639;48.862;9.188;2022-09-13T06:21:34;16.20;99.90
9209;DHT22;4639;48.862;9.188;2022-09-13T06:24:00;16.20;99.90
9209;DHT22;4639;48.862;9.188;2022-09-13T06:26:27;16.20;99.90
9209;DHT22;4639;48.862;9.188;2022-09-13T06:28:55;16.20;99.90
9209;DHT22;4639;48.862;9.188;2022-09-13T06:31:23;16.30;99.90
9209;DHT22;4639;48.862;9.188;2022-09-13T06:33:54;16.40;99.90
9209;DHT22;4639;48.862;9.188;2022-09-13T06:36:21;16.30;99.90
9209;DHT22;4639;48.862;9.188;2022-09-13T06:38:48;16.40;99.90
9209;DHT22;4639;48.862;9.188;2022-09-13T06:41:16;16.30;99.90
9209;DHT22;4639;48.862;9.188;2022-09-13T06:43:45;16.30;99.90
9209;DHT22;4639;48.862;9.188;2022-09-13T06:46:14;16.40;99.90
9209;DHT22;4639;48.862;9.188;2022-09-13T06:48:42;16.40;99.90
9209;DHT22;4639;48.862;9.188;2022-09-13T06:51:10;16.50;99.90
9209;DHT22;4639;48.862;9.188;2022-09-13T06:53:37;16.60;99.90
9209;DHT22;4639;48.862;9.188;2022-09-13T06:56:06;16.50;99.90
9209;DHT22;4639;48.862;9.188;2022-09-13T06:58:33;16.60;99.90
9209;DHT22;4639;48.862;9.188;2022-09-13T07:03:34;16.80;99.90
9209;DHT22;4639;48.862;9.188;2022-09-13T07:05:59;16.90;99.90
9209;DHT22;4639;48.862;9.188;2022-09-13T07:08:25;17.10;99.90
9209;DHT22;4639;48.862;9.188;2022-09-13T07:10:52;17.20;99.90
9209;DHT22;4639;48.862;9.188;2022-09-13T07:13:21;17.40;99.90
9209;DHT22;4639;48.862;9.188;2022-09-13T07:15:46;17.50;99.90
9209;DHT22;4639;48.862;9.188;2022-09-13T07:18:12;17.50;99.90
9209;DHT22;4639;48.862;9.188;2022-09-13T07:20:37;17.90;99.90
9209;DHT22;4639;48.862;9.188;2022-09-13T07:23:03;17.70;99.90
9209;DHT22;4639;48.862;9.188;2022-09-13T07:25:28;17.70;99.90
9209;DHT22;4639;48.862;9.188;2022-09-13T07:27:54;17.60;99.90
9209;DHT22;4639;48.862;9.188;2022-09-13T07:30:19;17.60;99.90
9209;DHT22;4639;48.862;9.188;2022-09-13T07:32:45;17.60;99.90
9209;DHT22;4639;48.862;9.188;2022-09-13T07:35:10;17.70;99.90
9209;DHT22;4639;48.862;9.188;2022-09-13T07:37:36;17.80;99.90
9209;DHT22;4639;48.862;9.188;2022-09-13T07:40:02;17.90;99.90
9209;DHT22;4639;48.862;9.188;2022-09-13T07:42:27;18.00;99.90
9209;DHT22;4639;48.862;9.188;2022-09-13T07:44:53;18.20;99.90
9209;DHT22;4639;48.862;9.188;2022-09-13T07:47:18;18.40;99.90
9209;DHT22;4639;48.862;9.188;2022-09-13T07:49:44;18.50;99.90
9209;DHT22;4639;48.862;9.188;2022-09-13T07:52:11;18.60;99.90
9209;DHT22;4639;48.862;9.188;2022-09-13T07:54:36;18.80;99.90
9209;DHT22;4639;48.862;9.188;2022-09-13T07:57:02;19.00;99.90
9209;DHT22;4639;48.862;9.188;2022-09-13T07:59:28;19.20;99.90
9209;DHT22;4639;48.862;9.188;2022-09-13T08:01:54;19.40;99.90
9209;DHT22;4639;48.862;9.188;2022-09-13T08:04:23;19.70;99.90
9209;DHT22;4639;48.862;9.188;2022-09-13T08:06:49;19.70;99.90
9209;DHT22;4639;48.862;9.188;2022-09-13T08:09:15;19.70;99.90
9209;DHT22;4639;48.862;9.188;2022-09-13T08:11:46;19.70;99.90
9209;DHT22;4639;48.862;9.188;2022-09-13T08:14:16;19.80;99.90
9209;DHT22;4639;48.862;9.188;2022-09-13T08:16:42;19.90;99.90
9209;DHT22;4639;48.862;9.188;2022-09-13T08:19:11;20.00;99.90
9209;DHT22;4639;48.862;9.188;2022-09-13T08:21:38;20.10;99.90
9209;DHT22;4639;48.862;9.188;2022-09-13T08:24:05;20.20;99.90
9209;DHT22;4639;48.862;9.188;2022-09-13T08:26:33;20.20;99.90
9209;DHT22;4639;48.862;9.188;2022-09-13T08:29:02;20.40;99.90
9209;DHT22;4639;48.862;9.188;2022-09-13T08:31:28;20.50;99.90
9209;DHT22;4639;48.862;9.188;2022-09-13T08:33:55;20.60;99.90
9209;DHT22;4639;48.862;9.188;2022-09-13T08:36:22;20.80;99.90
9209;DHT22;4639;48.862;9.188;2022-09-13T08:38:53;20.90;99.90
9209;DHT22;4639;48.862;9.188;2022-09-13T08:44:34;21.30;99.90
9209;DHT22;4639;48.862;9.188;2022-09-13T08:47:08;21.40;99.90
9209;DHT22;4639;48.862;9.188;2022-09-13T08:49:44;21.60;99.90
9209;DHT22;4639;48.862;9.188;2022-09-13T08:54:39;21.80;99.90
9209;DHT22;4639;48.862;9.188;2022-09-13T09:05:21;22.20;99.90
9209;DHT22;4639;48.862;9.188;2022-09-13T09:07:56;22.20;99.90
9209;DHT22;4639;48.862;9.188;2022-09-13T09:10:48;22.30;99.90
9209;DHT22;4639;48.862;9.188;2022-09-13T09:13:27;22.40;99.90
9209;DHT22;4639;48.862;9.188;2022-09-13T09:18:43;22.50;99.90
9209;DHT22;4639;48.862;9.188;2022-09-13T09:21:16;22.50;99.90
9209;DHT22;4639;48.862;9.188;2022-09-13T09:23:52;22.70;99.90
9209;DHT22;4639;48.862;9.188;2022-09-13T09:26:26;22.80;99.90
9209;DHT22;4639;48.862;9.188;2022-09-13T09:29:19;23.00;99.90
9209;DHT22;4639;48.862;9.188;2022-09-13T09:37:18;23.40;99.90
9209;DHT22;4639;48.862;9.188;2022-09-13T09:39:46;23.70;99.90
9209;DHT22;4639;48.862;9.188;2022-09-13T09:42:18;23.80;99.90
9209;DHT22;4639;48.862;9.188;2022-09-13T09:44:47;24.00;99.90
9209;DHT22;4639;48.862;9.188;2022-09-13T09:47:18;24.10;99.90
9209;DHT22;4639;48.862;9.188;2022-09-13T09:49:47;24.20;99.90
9209;DHT22;4639;48.862;9.188;2022-09-13T09:52:48;24.30;99.90
9209;DHT22;4639;48.862;9.188;2022-09-13T09:55:28;24.30;99.90
9209;DHT22;4639;48.862;9.188;2022-09-13T09:57:59;24.60;99.90
9209;DHT22;4639;48.862;9.188;2022-09-13T10:00:28;24.60;99.90
9209;DHT22;4639;48.862;9.188;2022-09-13T10:03:01;24.80;99.90
9209;DHT22;4639;48.862;9.188;2022-09-13T10:05:28;24.80;99.90
9209;DHT22;4639;48.862;9.188;2022-09-13T10:08:02;24.80;99.90
9209;DHT22;4639;48.862;9.188;2022-09-13T10:13:01;25.10;99.90
9209;DHT22;4639;48.862;9.188;2022-09-13T10:15:29;25.60;99.90
9209;DHT22;4639;48.862;9.188;2022-09-13T10:18:04;26.00;99.90
9209;DHT22;4639;48.862;9.188;2022-09-13T10:20:31;26.40;99.90
9209;DHT22;4639;48.862;9.188;2022-09-13T10:25:35;26.70;99.90
9209;DHT22;4639;48.862;9.188;2022-09-13T10:28:04;27.00;99.90
9209;DHT22;4639;48.862;9.188;2022-09-13T10:30:35;27.20;99.90
9209;DHT22;4639;48.862;9.188;2022-09-13T10:33:02;27.50;99.90
9209;DHT22;4639;48.862;9.188;2022-09-13T10:35:29;28.00;99.90
9209;DHT22;4639;48.862;9.188;2022-09-13T10:37:55;28.10;99.90
9209;DHT22;4639;48.862;9.188;2022-09-13T10:40:30;28.30;99.90
9209;DHT22;4639;48.862;9.188;2022-09-13T10:43:05;28.70;99.90
9209;DHT22;4639;48.862;9.188;2022-09-13T10:45:39;29.20;99.90
9209;DHT22;4639;48.862;9.188;2022-09-13T10:48:15;29.60;99.90
9209;DHT22;4639;48.862;9.188;2022-09-13T10:51:00;29.70;99.90
9209;DHT22;4639;48.862;9.188;2022-09-13T10:53:36;29.70;99.90
9209;DHT22;4639;48.862;9.188;2022-09-13T10:56:03;29.50;99.90
9209;DHT22;4639;48.862;9.188;2022-09-13T10:58:29;29.30;99.90
9209;DHT22;4639;48.862;9.188;2022-09-13T11:06:41;29.40;99.90
9209;DHT22;4639;48.862;9.188;2022-09-13T11:09:21;29.90;99.90
9209;DHT22;4639;48.862;9.188;2022-09-13T11:17:40;30.00;99.90
9209;DHT22;4639;48.862;9.188;2022-09-13T11:20:16;30.20;99.90
9209;DHT22;4639;48.862;9.188;2022-09-13T11:25:28;30.00;99.90
9209;DHT22;4639;48.862;9.188;2022-09-13T11:42:35;30.20;99.90
9209;DHT22;4639;48.862;9.188;2022-09-13T11:45:23;30.30;99.90
9209;DHT22;4639;48.862;9.188;2022-09-13T11:48:03;30.60;99.90
9209;DHT22;4639;48.862;9.188;2022-09-13T11:53:36;31.40;99.90
9209;DHT22;4639;48.862;9.188;2022-09-13T11:56:10;31.70;99.90
9209;DHT22;4639;48.862;9.188;2022-09-13T11:58:51;31.60;99.90
9209;DHT22;4639;48.862;9.188;2022-09-13T12:01:25;31.50;99.90
9209;DHT22;4639;48.862;9.188;2022-09-13T12:04:04;31.60;99.90
9209;DHT22;4639;48.862;9.188;2022-09-13T12:06:34;31.50;99.90
9209;DHT22;4639;48.862;9.188;2022-09-13T12:09:23;31.40;99.90
9209;DHT22;4639;48.862;9.188;2022-09-13T12:11:54;31.40;99.90
9209;DHT22;4639;48.862;9.188;2022-09-13T12:14:25;31.60;99.90
9209;DHT22;4639;48.862;9.188;2022-09-13T12:16:55;31.80;99.20
9209;DHT22;4639;48.862;9.188;2022-09-13T12:19:43;31.60;99.10
9209;DHT22;4639;48.862;9.188;2022-09-13T12:22:10;31.40;99.40
9209;DHT22;4639;48.862;9.188;2022-09-13T12:24:46;31.30;99.90
9209;DHT22;4639;48.862;9.188;2022-09-13T12:27:29;31.20;99.50
9209;DHT22;4639;48.862;9.188;2022-09-13T12:30:18;31.00;98.50
9209;DHT22;4639;48.862;9.188;2022-09-13T12:32:45;30.80;99.30
9209;DHT22;4639;48.862;9.188;2022-09-13T12:35:36;30.60;98.90
9209;DHT22;4639;48.862;9.188;2022-09-13T12:38:27;30.30;99.90
9209;DHT22;4639;48.862;9.188;2022-09-13T12:41:13;30.20;99.60
9209;DHT22;4639;48.862;9.188;2022-09-13T12:57:28;30.90;99.40
9209;DHT22;4639;48.862;9.188;2022-09-13T13:00:29;31.20;98.70
9209;DHT22;4639;48.862;9.188;2022-09-13T13:06:06;31.20;97.70
9209;DHT22;4639;48.862;9.188;2022-09-13T13:08:33;31.10;98.30
9209;DHT22;4639;48.862;9.188;2022-09-13T13:11:09;31.00;97.70
9209;DHT22;4639;48.862;9.188;2022-09-13T13:13:42;30.90;98.60
9209;DHT22;4639;48.862;9.188;2022-09-13T13:16:40;31.00;98.20
9209;DHT22;4639;48.862;9.188;2022-09-13T13:19:30;31.10;97.20
9209;DHT22;4639;48.862;9.188;2022-09-13T13:25:33;31.20;97.40
9209;DHT22;4639;48.862;9.188;2022-09-13T13:28:02;31.10;97.40
9209;DHT22;4639;48.862;9.188;2022-09-13T13:30:57;31.10;97.70
9209;DHT22;4639;48.862;9.188;2022-09-13T13:33:27;31.00;97.90
9209;DHT22;4639;48.862;9.188;2022-09-13T13:35:53;30.80;97.20
9209;DHT22;4639;48.862;9.188;2022-09-13T13:40:48;30.90;99.20
9209;DHT22;4639;48.862;9.188;2022-09-13T13:43:35;31.10;98.60
9209;DHT22;4639;48.862;9.188;2022-09-13T13:48:38;31.70;96.30
9209;DHT22;4639;48.862;9.188;2022-09-13T13:53:49;32.20;97.30
9209;DHT22;4639;48.862;9.188;2022-09-13T13:56:32;32.30;95.80
9209;DHT22;4639;48.862;9.188;2022-09-13T13:59:03;32.20;95.50
9209;DHT22;4639;48.862;9.188;2022-09-13T14:01:33;31.90;96.00
9209;DHT22;4639;48.862;9.188;2022-09-13T14:09:51;30.60;96.90
9209;DHT22;4639;48.862;9.188;2022-09-13T14:12:24;30.60;97.10
9209;DHT22;4639;48.862;9.188;2022-09-13T14:15:04;30.60;97.50
9209;DHT22;4639;48.862;9.188;2022-09-13T14:17:48;30.50;96.90
9209;DHT22;4639;48.862;9.188;2022-09-13T14:20:19;30.60;97.60
9209;DHT22;4639;48.862;9.188;2022-09-13T14:22:45;30.70;96.90
9209;DHT22;4639;48.862;9.188;2022-09-13T14:25:23;30.90;96.50
9209;DHT22;4639;48.862;9.188;2022-09-13T14:27:52;30.90;97.90
9209;DHT22;4639;48.862;9.188;2022-09-13T14:30:23;31.20;95.80
9209;DHT22;4639;48.862;9.188;2022-09-13T14:32:54;31.40;96.70
9209;DHT22;4639;48.862;9.188;2022-09-13T14:35:25;31.70;96.50
9209;DHT22;4639;48.862;9.188;2022-09-13T14:37:51;31.90;95.50
9209;DHT22;4639;48.862;9.188;2022-09-13T14:40:20;31.90;95.70
9209;DHT22;4639;48.862;9.188;2022-09-13T14:42:48;32.10;95.20
9209;DHT22;4639;48.862;9.188;2022-09-13T14:45:35;32.10;93.40
9209;DHT22;4639;48.862;9.188;2022-09-13T14:48:08;31.90;92.30
9209;DHT22;4639;48.862;9.188;2022-09-13T14:50:41;31.90;94.40
9209;DHT22;4639;48.862;9.188;2022-09-13T14:53:21;32.00;93.60
9209;DHT22;4639;48.862;9.188;2022-09-13T14:55:52;32.00;94.90
9209;DHT22;4639;48.862;9.188;2022-09-13T14:58:23;32.00;94.10
9209;DHT22;4639;48.862;9.188;2022-09-13T15:01:01;32.10;92.70
9209;DHT22;4639;48.862;9.188;2022-09-13T15:03:27;32.20;92.80
9209;DHT22;4639;48.862;9.188;2022-09-13T15:05:59;32.20;91.80
9209;DHT22;4639;48.862;9.188;2022-09-13T15:10:51;31.90;92.30
9209;DHT22;4639;48.862;9.188;2022-09-13T15:13:17;31.70;90.50
9209;DHT22;4639;48.862;9.188;2022-09-13T15:15:43;31.50;91.70
9209;DHT22;4639;48.862;9.188;2022-09-13T15:21:04;31.30;92.30
9209;DHT22;4639;48.862;9.188;2022-09-13T15:26:05;30.90;93.30
9209;DHT22;4639;48.862;9.188;2022-09-13T15:28:44;30.70;94.20
9209;DHT22;4639;48.862;9.188;2022-09-13T15:31:28;30.50;92.80
9209;DHT22;4639;48.862;9.188;2022-09-13T15:36:38;30.10;93.40
9209;DHT22;4639;48.862;9.188;2022-09-13T15:41:37;29.70;94.50
9209;DHT22;4639;48.862;9.188;2022-09-13T15:44:07;29.60;94.90
9209;DHT22;4639;48.862;9.188;2022-09-13T15:46:42;29.50;95.00
9209;DHT22;4639;48.862;9.188;2022-09-13T15:49:15;29.40;95.90
9209;DHT22;4639;48.862;9.188;2022-09-13T15:51:42;29.30;96.00
9209;DHT22;4639;48.862;9.188;2022-09-13T15:54:15;29.40;96.60
9209;DHT22;4639;48.862;9.188;2022-09-13T15:56:45;29.30;96.60
9209;DHT22;4639;48.862;9.188;2022-09-13T15:59:17;29.20;97.00
9209;DHT22;4639;48.862;9.188;2022-09-13T16:01:43;29.20;97.40
9209;DHT22;4639;48.862;9.188;2022-09-13T16:04:10;29.10;98.00
9209;DHT22;4639;48.862;9.188;2022-09-13T16:06:36;29.00;98.00
9209;DHT22;4639;48.862;9.188;2022-09-13T16:09:20;28.90;97.00
9209;DHT22;4639;48.862;9.188;2022-09-13T16:11:46;28.80;97.80
9209;DHT22;4639;48.862;9.188;2022-09-13T16:14:13;28.80;97.80
9209;DHT22;4639;48.862;9.188;2022-09-13T16:16:39;28.70;98.50
9209;DHT22;4639;48.862;9.188;2022-09-13T16:19:05;28.70;98.90
9209;DHT22;4639;48.862;9.188;2022-09-13T16:21:30;28.60;99.30
9209;DHT22;4639;48.862;9.188;2022-09-13T16:23:56;28.50;99.30
9209;DHT22;4639;48.862;9.188;2022-09-13T16:26:22;28.50;99.60
9209;DHT22;4639;48.862;9.188;2022-09-13T16:28:47;28.40;99.90
9209;DHT22;4639;48.862;9.188;2022-09-13T16:31:13;28.40;99.90
9209;DHT22;4639;48.862;9.188;2022-09-13T16:33:40;28.30;99.90
9209;DHT22;4639;48.862;9.188;2022-09-13T16:36:10;28.50;99.90
9209;DHT22;4639;48.862;9.188;2022-09-13T16:38:37;28.30;99.90
9209;DHT22;4639;48.862;9.188;2022-09-13T16:41:06;28.20;99.90
9209;DHT22;4639;48.862;9.188;2022-09-13T16:43:31;28.20;99.90
9209;DHT22;4639;48.862;9.188;2022-09-13T16:45:58;28.10;99.90
9209;DHT22;4639;48.862;9.188;2022-09-13T16:48:24;28.00;99.90
9209;DHT22;4639;48.862;9.188;2022-09-13T16:50:49;28.00;99.90
9209;DHT22;4639;48.862;9.188;2022-09-13T16:53:15;27.90;99.90
9209;DHT22;4639;48.862;9.188;2022-09-13T16:55:40;27.90;99.90
9209;DHT22;4639;48.862;9.188;2022-09-13T16:58:07;27.80;99.90
9209;DHT22;4639;48.862;9.188;2022-09-13T17:00:32;27.80;99.90
9209;DHT22;4639;48.862;9.188;2022-09-13T17:02:58;27.70;99.90
9209;DHT22;4639;48.862;9.188;2022-09-13T17:05:24;27.70;99.90
9209;DHT22;4639;48.862;9.188;2022-09-13T17:07:51;27.60;99.90
9209;DHT22;4639;48.862;9.188;2022-09-13T17:10:17;27.50;99.90
9209;DHT22;4639;48.862;9.188;2022-09-13T17:12:43;27.40;99.90
9209;DHT22;4639;48.862;9.188;2022-09-13T17:15:09;27.30;99.90
9209;DHT22;4639;48.862;9.188;2022-09-13T17:17:35;27.30;99.90
9209;DHT22;4639;48.862;9.188;2022-09-13T17:20:09;27.20;99.90
9209;DHT22;4639;48.862;9.188;2022-09-13T17:22:35;27.10;99.90
9209;DHT22;4639;48.862;9.188;2022-09-13T17:25:02;27.00;99.90
9209;DHT22;4639;48.862;9.188;2022-09-13T17:27:28;27.00;99.90
9209;DHT22;4639;48.862;9.188;2022-09-13T17:29:54;26.90;99.90
9209;DHT22;4639;48.862;9.188;2022-09-13T17:32:20;26.80;99.90
9209;DHT22;4639;48.862;9.188;2022-09-13T17:34:45;26.80;99.90
9209;DHT22;4639;48.862;9.188;2022-09-13T17:37:11;26.70;99.90
9209;DHT22;4639;48.862;9.188;2022-09-13T17:39:36;26.60;99.90
9209;DHT22;4639;48.862;9.188;2022-09-13T17:42:02;26.50;99.90
9209;DHT22;4639;48.862;9.188;2022-09-13T17:44:28;26.50;99.90
9209;DHT22;4639;48.862;9.188;2022-09-13T17:46:53;26.40;99.90
9209;DHT22;4639;48.862;9.188;2022-09-13T17:49:19;26.40;99.90
9209;DHT22;4639;48.862;9.188;2022-09-13T17:51:45;26.40;99.90
9209;DHT22;4639;48.862;9.188;2022-09-13T17:54:10;26.30;99.90
9209;DHT22;4639;48.862;9.188;2022-09-13T17:56:43;26.30;99.90
9209;DHT22;4639;48.862;9.188;2022-09-13T17:59:15;26.10;99.90
9209;DHT22;4639;48.862;9.188;2022-09-13T18:01:46;26.10;99.90
9209;DHT22;4639;48.862;9.188;2022-09-13T18:04:13;26.00;99.90
9209;DHT22;4639;48.862;9.188;2022-09-13T18:06:39;26.00;99.90
9209;DHT22;4639;48.862;9.188;2022-09-13T18:09:07;25.90;99.90
9209;DHT22;4639;48.862;9.188;2022-09-13T18:11:34;25.90;99.90
9209;DHT22;4639;48.862;9.188;2022-09-13T18:14:00;25.90;99.90
9209;DHT22;4639;48.862;9.188;2022-09-13T18:16:27;25.80;99.90
9209;DHT22;4639;48.862;9.188;2022-09-13T18:18:54;25.80;99.90
9209;DHT22;4639;48.862;9.188;2022-09-13T18:21:22;25.70;99.90
9209;DHT22;4639;48.862;9.188;2022-09-13T18:23:51;25.60;99.90
9209;DHT22;4639;48.862;9.188;2022-09-13T18:26:19;25.60;99.90
9209;DHT22;4639;48.862;9.188;2022-09-13T18:28:45;25.50;99.90
9209;DHT22;4639;48.862;9.188;2022-09-13T18:31:14;25.40;99.90
9209;DHT22;4639;48.862;9.188;2022-09-13T18:33:40;25.40;99.90
9209;DHT22;4639;48.862;9.188;2022-09-13T18:36:08;25.30;99.90
9209;DHT22;4639;48.862;9.188;2022-09-13T18:38:39;25.30;99.90
9209;DHT22;4639;48.862;9.188;2022-09-13T18:41:11;25.20;99.90
9209;DHT22;4639;48.862;9.188;2022-09-13T18:43:38;25.10;99.90
9209;DHT22;4639;48.862;9.188;2022-09-13T18:46:07;25.00;99.90
9209;DHT22;4639;48.862;9.188;2022-09-13T18:48:35;24.90;99.90
9209;DHT22;4639;48.862;9.188;2022-09-13T18:51:02;24.80;99.90
9209;DHT22;4639;48.862;9.188;2022-09-13T18:53:29;24.80;99.90